createdAt,value
2018-10-17T00:02:18.773Z,16.90
2018-10-17T00:04:46.923Z,17.00
2018-10-17T00:07:15.296Z,17.00
2018-10-17T00:09:43.473Z,17.00
2018-10-17T00:12:11.677Z,17.00
2018-10-17T00:14:39.943Z,17.00
2018-10-17T00:17:08.811Z,17.00
2018-10-17T00:19:37.403Z,17.00
2018-10-17T00:22:05.734Z,17.00
2018-10-17T00:24:34.025Z,16.80
2018-10-17T00:27:02.223Z,16.80
2018-10-17T00:29:30.458Z,16.80
2018-10-17T00:31:58.724Z,16.70
2018-10-17T00:34:27.040Z,16.60
2018-10-17T00:36:55.327Z,16.60
2018-10-17T00:39:23.461Z,16.50
2018-10-17T00:41:51.660Z,16.30
2018-10-17T00:44:19.930Z,16.40
2018-10-17T00:46:48.121Z,16.20
2018-10-17T00:49:16.409Z,16.10
2018-10-17T00:51:44.588Z,16.10
2018-10-17T00:54:12.822Z,15.90
2018-10-17T00:56:41.015Z,15.90
2018-10-17T00:59:11.517Z,15.80
2018-10-17T01:01:39.913Z,15.80
2018-10-17T01:04:08.426Z,15.70
2018-10-17T01:06:37.109Z,15.70
2018-10-17T01:09:09.424Z,15.80
2018-10-17T01:11:38.182Z,15.80
2018-10-17T01:14:07.099Z,15.70
2018-10-17T01:16:35.323Z,15.70
2018-10-17T01:19:04.204Z,15.80
2018-10-17T01:21:32.742Z,15.70
2018-10-17T01:24:00.988Z,15.70
2018-10-17T01:26:29.162Z,15.70
2018-10-17T01:28:57.420Z,15.70
2018-10-17T01:31:25.639Z,15.60
2018-10-17T01:33:53.900Z,15.60
2018-10-17T01:36:22.148Z,15.50
2018-10-17T01:38:50.365Z,15.40
2018-10-17T01:41:18.731Z,15.40
2018-10-17T01:43:48.014Z,15.40
2018-10-17T01:46:16.236Z,15.20
2018-10-17T01:48:44.440Z,15.20
2018-10-17T01:51:12.727Z,15.20
2018-10-17T01:53:41.022Z,15.30
2018-10-17T01:56:09.197Z,15.30
2018-10-17T01:58:37.377Z,15.20
2018-10-17T02:01:05.606Z,15.10
2018-10-17T02:03:33.789Z,15.20
2018-10-17T02:06:02.033Z,15.20
2018-10-17T02:08:30.343Z,15.20
2018-10-17T02:10:58.633Z,15.10
2018-10-17T02:13:26.823Z,15.10
2018-10-17T02:15:55.046Z,15.00
2018-10-17T02:18:23.286Z,15.00
2018-10-17T02:20:51.673Z,14.90
2018-10-17T02:23:19.919Z,14.80
2018-10-17T02:25:48.171Z,14.80
2018-10-17T02:28:16.523Z,14.80
2018-10-17T02:30:44.733Z,14.70
2018-10-17T02:33:12.982Z,14.80
2018-10-17T02:35:41.388Z,14.80
2018-10-17T02:38:09.555Z,14.80
2018-10-17T02:40:37.737Z,14.80
2018-10-17T02:43:06.020Z,14.80
2018-10-17T02:45:34.250Z,14.80
2018-10-17T02:48:02.431Z,14.80
2018-10-17T02:50:30.654Z,14.80
2018-10-17T02:52:58.905Z,14.80
2018-10-17T02:55:27.161Z,14.80
2018-10-17T02:57:55.449Z,14.80
2018-10-17T03:00:23.633Z,14.80
2018-10-17T03:02:51.823Z,14.80
2018-10-17T03:05:20.104Z,14.80
2018-10-17T03:07:48.251Z,14.80
2018-10-17T03:10:16.659Z,14.80
2018-10-17T03:12:44.942Z,14.80
2018-10-17T03:15:13.154Z,14.80
2018-10-17T03:17:41.368Z,14.80
2018-10-17T03:20:10.231Z,14.80
2018-10-17T03:22:38.465Z,14.80
2018-10-17T03:25:07.500Z,14.80
2018-10-17T03:27:35.691Z,14.80
2018-10-17T03:30:03.926Z,14.70
2018-10-17T03:32:32.128Z,14.80
2018-10-17T03:35:00.480Z,14.70
2018-10-17T03:37:28.712Z,14.60
2018-10-17T03:39:56.957Z,14.40
2018-10-17T03:42:25.248Z,14.50
2018-10-17T03:44:53.434Z,14.50
2018-10-17T03:47:21.696Z,14.40
2018-10-17T03:49:49.990Z,14.40
2018-10-17T03:52:18.123Z,14.40
2018-10-17T03:54:46.442Z,14.40
2018-10-17T03:57:14.704Z,14.50
2018-10-17T03:59:43.057Z,14.50
2018-10-17T04:02:11.173Z,14.50
2018-10-17T04:04:39.482Z,14.60
2018-10-17T04:07:07.831Z,14.60
2018-10-17T04:09:36.476Z,14.40
2018-10-17T04:12:04.784Z,14.40
2018-10-17T04:14:33.065Z,14.40
2018-10-17T04:17:01.389Z,14.40
2018-10-17T04:19:29.800Z,14.50
2018-10-17T04:21:58.211Z,14.50
2018-10-17T04:24:26.471Z,14.40
2018-10-17T04:26:54.793Z,14.40
2018-10-17T04:29:23.146Z,14.30
2018-10-17T04:31:51.419Z,14.30
2018-10-17T04:34:19.736Z,14.40
2018-10-17T04:36:47.920Z,14.20
2018-10-17T04:39:16.189Z,14.20
2018-10-17T04:41:44.456Z,14.20
2018-10-17T04:44:12.783Z,14.10
2018-10-17T04:46:41.092Z,14.10
2018-10-17T04:49:09.970Z,14.10
2018-10-17T04:51:38.195Z,14.10
2018-10-17T04:54:07.020Z,14.30
2018-10-17T04:56:35.483Z,14.30
2018-10-17T04:59:03.758Z,14.30
2018-10-17T05:01:33.019Z,14.30
2018-10-17T05:04:01.284Z,14.30
2018-10-17T05:06:29.516Z,14.30
2018-10-17T05:08:57.766Z,14.30
2018-10-17T05:11:26.028Z,14.30
2018-10-17T05:13:54.350Z,14.40
2018-10-17T05:16:23.267Z,14.40
2018-10-17T05:18:51.581Z,14.40
2018-10-17T05:21:19.841Z,14.30
2018-10-17T05:23:48.121Z,14.30
2018-10-17T05:26:16.610Z,14.40
2018-10-17T05:28:44.828Z,14.30
2018-10-17T05:31:13.170Z,14.30
2018-10-17T05:33:41.319Z,14.30
2018-10-17T05:36:09.538Z,14.20
2018-10-17T05:38:37.748Z,14.10
2018-10-17T05:41:06.035Z,14.10
2018-10-17T05:43:34.214Z,14.10
2018-10-17T05:46:02.452Z,14.10
2018-10-17T05:48:30.670Z,14.10
2018-10-17T05:50:58.898Z,14.10
2018-10-17T05:53:27.124Z,14.10
2018-10-17T05:55:55.356Z,14.00
2018-10-17T05:58:23.610Z,14.10
2018-10-17T06:00:51.875Z,14.00
2018-10-17T06:03:20.208Z,14.00
2018-10-17T06:05:48.525Z,13.90
2018-10-17T06:08:16.766Z,14.00
2018-10-17T06:10:45.016Z,14.00
2018-10-17T06:13:13.244Z,13.80
2018-10-17T06:15:41.579Z,13.90
2018-10-17T06:18:10.894Z,13.80
2018-10-17T06:20:39.199Z,13.70
2018-10-17T06:23:07.582Z,13.70
2018-10-17T06:25:36.049Z,13.60
2018-10-17T06:28:04.477Z,13.50
2018-10-17T06:30:32.843Z,13.50
2018-10-17T06:33:01.079Z,13.50
2018-10-17T06:35:29.507Z,13.70
2018-10-17T06:37:57.802Z,13.80
2018-10-17T06:40:26.226Z,13.80
2018-10-17T06:42:54.551Z,13.80
2018-10-17T06:45:22.843Z,13.80
2018-10-17T06:47:51.184Z,13.90
2018-10-17T06:50:19.517Z,13.90
2018-10-17T06:52:47.808Z,14.00
2018-10-17T06:55:16.188Z,14.00
2018-10-17T06:57:44.391Z,14.10
2018-10-17T07:03:01.751Z,14.50
2018-10-17T07:05:29.980Z,14.70
2018-10-17T07:07:58.297Z,14.80
2018-10-17T07:10:26.509Z,14.80
2018-10-17T07:12:54.741Z,14.70
2018-10-17T07:15:22.990Z,14.90
2018-10-17T07:17:51.196Z,15.20
2018-10-17T07:20:19.406Z,15.10
2018-10-17T07:22:47.805Z,15.20
2018-10-17T07:25:16.013Z,15.50
2018-10-17T07:27:44.217Z,15.70
2018-10-17T07:30:12.450Z,15.80
2018-10-17T07:32:40.727Z,16.10
2018-10-17T07:35:09.598Z,16.50
2018-10-17T07:37:37.768Z,16.60
2018-10-17T07:40:06.331Z,17.00
2018-10-17T07:42:34.709Z,17.30
2018-10-17T07:45:02.959Z,17.40
2018-10-17T07:47:31.193Z,17.40
2018-10-17T07:49:59.449Z,17.30
2018-10-17T07:52:27.657Z,17.30
2018-10-17T07:54:55.861Z,17.50
2018-10-17T07:57:24.088Z,17.70
2018-10-17T07:59:52.426Z,17.80
2018-10-17T08:02:20.560Z,18.30
2018-10-17T08:04:49.195Z,18.60
2018-10-17T08:07:17.797Z,18.70
2018-10-17T08:09:46.124Z,18.80
2018-10-17T08:12:14.367Z,18.70
2018-10-17T08:14:42.813Z,18.70
2018-10-17T08:17:11.754Z,18.80
2018-10-17T08:19:39.965Z,18.80
2018-10-17T08:22:08.148Z,18.90
2018-10-17T08:24:36.455Z,19.00
2018-10-17T08:27:04.759Z,18.70
2018-10-17T08:29:32.914Z,18.70
2018-10-17T08:32:01.096Z,18.60
2018-10-17T08:34:29.286Z,18.50
2018-10-17T08:36:57.955Z,18.80
2018-10-17T08:39:25.688Z,19.10
2018-10-17T08:41:53.903Z,19.50
2018-10-17T08:44:22.151Z,20.00
2018-10-17T08:46:50.350Z,20.00
2018-10-17T08:49:18.572Z,19.90
2018-10-17T08:51:46.782Z,20.20
2018-10-17T08:54:14.979Z,20.50
2018-10-17T08:56:43.218Z,21.00
2018-10-17T08:59:11.467Z,21.30
2018-10-17T09:01:39.635Z,21.60
2018-10-17T09:04:07.934Z,21.90
2018-10-17T09:06:36.137Z,22.20
2018-10-17T09:09:08.749Z,22.30
2018-10-17T09:11:37.158Z,22.40
2018-10-17T09:14:05.905Z,22.40
2018-10-17T09:16:34.136Z,22.90
2018-10-17T09:19:02.335Z,23.20
2018-10-17T09:21:30.726Z,23.40
2018-10-17T09:23:59.756Z,23.50
2018-10-17T09:26:28.011Z,23.70
2018-10-17T09:28:56.251Z,24.20
2018-10-17T09:31:31.258Z,23.60
2018-10-17T09:33:59.542Z,24.10
2018-10-17T09:36:27.734Z,24.70
2018-10-17T09:38:55.914Z,24.90
2018-10-17T09:41:24.163Z,25.30
2018-10-17T09:43:52.379Z,25.10
2018-10-17T09:46:20.564Z,26.20
2018-10-17T09:48:48.766Z,26.00
2018-10-17T09:51:16.994Z,26.60
2018-10-17T09:53:45.200Z,26.50
2018-10-17T09:56:13.432Z,26.20
2018-10-17T09:58:41.632Z,26.00
2018-10-17T10:01:15.222Z,26.30
2018-10-17T10:03:43.428Z,26.80
2018-10-17T10:06:11.763Z,27.10
2018-10-17T10:08:40.031Z,27.40
2018-10-17T10:11:08.552Z,27.60
2018-10-17T10:13:36.688Z,28.30
2018-10-17T10:16:05.004Z,28.50
2018-10-17T10:18:33.165Z,28.90
2018-10-17T10:21:01.343Z,28.80
2018-10-17T10:23:29.624Z,28.80
2018-10-17T10:25:57.817Z,29.20
2018-10-17T10:28:26.342Z,29.20
2018-10-17T10:30:54.373Z,28.90
2018-10-17T10:33:22.737Z,28.50
2018-10-17T10:35:51.034Z,28.10
2018-10-17T10:38:19.263Z,27.80
2018-10-17T10:40:47.637Z,28.30
2018-10-17T10:43:15.827Z,28.10
2018-10-17T10:45:44.044Z,28.40
2018-10-17T10:48:12.315Z,29.30
2018-10-17T10:50:40.571Z,30.30
2018-10-17T10:53:08.819Z,30.30
2018-10-17T10:55:37.031Z,30.40
2018-10-17T10:58:05.389Z,30.00
2018-10-17T11:00:33.536Z,30.20
2018-10-17T11:03:01.853Z,30.80
2018-10-17T11:05:30.164Z,31.20
2018-10-17T11:07:58.153Z,31.50
2018-10-17T11:10:26.322Z,31.80
2018-10-17T11:12:54.552Z,31.50
2018-10-17T11:15:22.863Z,31.70
2018-10-17T11:17:51.064Z,31.50
2018-10-17T11:20:19.282Z,31.50
2018-10-17T11:22:47.504Z,32.20
2018-10-17T11:25:15.780Z,32.60
2018-10-17T11:27:44.919Z,32.40
2018-10-17T11:30:13.111Z,31.70
2018-10-17T11:32:41.311Z,32.40
2018-10-17T11:35:10.244Z,32.70
2018-10-17T11:37:38.830Z,33.00
2018-10-17T11:40:07.244Z,32.70
2018-10-17T11:42:35.398Z,32.10
2018-10-17T11:45:03.820Z,31.60
2018-10-17T11:47:32.057Z,32.20
2018-10-17T11:50:00.437Z,32.70
2018-10-17T11:52:28.630Z,33.30
2018-10-17T11:54:56.823Z,33.30
2018-10-17T11:57:25.095Z,33.60
2018-10-17T11:59:53.339Z,33.80
2018-10-17T12:02:21.618Z,33.80
2018-10-17T12:04:49.949Z,33.40
2018-10-17T12:07:18.805Z,32.40
2018-10-17T12:09:47.009Z,32.40
2018-10-17T12:12:15.263Z,32.60
2018-10-17T12:14:43.427Z,33.50
2018-10-17T12:17:11.607Z,33.50
2018-10-17T12:19:39.846Z,33.80
2018-10-17T12:22:08.087Z,33.70
2018-10-17T12:24:36.280Z,33.30
2018-10-17T12:27:04.479Z,32.60
2018-10-17T12:29:32.680Z,31.30
2018-10-17T12:32:00.912Z,31.50
2018-10-17T12:34:29.135Z,32.00
2018-10-17T12:36:57.343Z,31.80
2018-10-17T12:39:25.709Z,32.10
2018-10-17T12:41:53.847Z,31.50
2018-10-17T12:44:22.051Z,31.80
2018-10-17T12:46:50.236Z,32.10
2018-10-17T12:49:18.494Z,32.00
2018-10-17T12:51:46.706Z,32.60
2018-10-17T12:54:14.899Z,33.20
2018-10-17T12:56:43.155Z,33.50
2018-10-17T12:59:11.450Z,33.40
2018-10-17T13:01:39.710Z,32.90
2018-10-17T13:04:08.054Z,33.10
2018-10-17T13:06:36.339Z,33.40
2018-10-17T13:09:07.860Z,33.40
2018-10-17T13:11:36.197Z,33.10
2018-10-17T13:14:04.526Z,32.60
2018-10-17T13:16:32.758Z,32.80
2018-10-17T13:19:01.072Z,32.60
2018-10-17T13:21:29.525Z,32.60
2018-10-17T13:23:58.296Z,33.10
2018-10-17T13:26:26.960Z,33.40
2018-10-17T13:28:55.519Z,33.30
2018-10-17T13:31:24.015Z,32.80
2018-10-17T13:33:52.532Z,32.70
2018-10-17T13:36:20.840Z,32.40
2018-10-17T13:38:49.190Z,32.30
2018-10-17T13:41:17.562Z,32.00
2018-10-17T13:43:45.936Z,31.50
2018-10-17T13:46:14.227Z,30.80
2018-10-17T13:48:42.596Z,30.80
2018-10-17T13:51:11.015Z,30.90
2018-10-17T13:53:39.331Z,31.00
2018-10-17T13:56:07.668Z,30.80
2018-10-17T13:58:36.066Z,30.90
2018-10-17T14:01:04.473Z,31.20
2018-10-17T14:03:33.021Z,31.30
2018-10-17T14:06:01.584Z,31.00
2018-10-17T14:08:30.325Z,31.00
2018-10-17T14:10:59.494Z,30.40
2018-10-17T14:13:29.555Z,30.10
2018-10-17T14:15:59.794Z,30.10
2018-10-17T14:18:30.311Z,30.00
2018-10-17T14:21:00.771Z,29.50
2018-10-17T14:23:29.387Z,28.70
2018-10-17T14:25:59.541Z,28.50
2018-10-17T14:28:31.657Z,28.60
2018-10-17T14:30:59.934Z,28.30
2018-10-17T14:33:28.233Z,28.20
2018-10-17T14:35:56.658Z,28.00
2018-10-17T14:38:24.825Z,27.70
2018-10-17T14:40:53.130Z,27.40
2018-10-17T14:43:21.452Z,27.40
2018-10-17T14:45:49.760Z,27.20
2018-10-17T14:48:18.061Z,27.10
2018-10-17T14:50:47.104Z,26.80
2018-10-17T14:53:15.383Z,26.70
2018-10-17T14:55:43.654Z,26.60
2018-10-17T14:58:12.003Z,26.60
2018-10-17T15:00:40.421Z,26.40
2018-10-17T15:03:08.762Z,26.20
2018-10-17T15:05:37.102Z,26.20
2018-10-17T15:08:05.448Z,26.20
2018-10-17T15:10:33.936Z,26.20
2018-10-17T15:13:02.108Z,26.10
2018-10-17T15:15:30.445Z,25.90
2018-10-17T15:17:59.907Z,25.70
2018-10-17T15:20:28.385Z,25.70
2018-10-17T15:22:56.973Z,25.50
2018-10-17T15:25:25.706Z,25.50
2018-10-17T15:27:54.156Z,25.50
2018-10-17T15:30:22.561Z,25.50
2018-10-17T15:32:51.190Z,25.40
2018-10-17T15:35:19.517Z,25.40
2018-10-17T15:37:47.821Z,25.10
2018-10-17T15:40:16.070Z,25.00
2018-10-17T15:42:44.378Z,24.90
2018-10-17T15:45:12.823Z,24.90
2018-10-17T15:47:49.117Z,24.90
2018-10-17T15:50:18.366Z,24.80
2018-10-17T15:52:46.841Z,24.70
2018-10-17T15:55:16.126Z,24.60
2018-10-17T15:57:44.432Z,24.60
2018-10-17T16:00:12.844Z,24.60
2018-10-17T16:02:41.031Z,24.50
2018-10-17T16:05:10.761Z,24.50
2018-10-17T16:07:39.183Z,24.30
2018-10-17T16:10:08.028Z,24.20
2018-10-17T16:12:37.266Z,24.20
2018-10-17T16:15:06.461Z,24.30
2018-10-17T16:17:34.786Z,24.70
2018-10-17T16:20:03.457Z,25.40
2018-10-17T16:22:31.751Z,26.80
2018-10-17T16:25:00.121Z,27.30
2018-10-17T16:27:28.454Z,27.80
2018-10-17T16:29:56.938Z,28.50
2018-10-17T16:32:25.828Z,28.60
2018-10-17T16:34:57.003Z,28.60
2018-10-17T16:37:26.848Z,28.70
2018-10-17T16:40:09.809Z,28.60
2018-10-17T16:42:38.303Z,28.10
2018-10-17T16:45:07.954Z,27.30
2018-10-17T16:47:36.355Z,26.50
2018-10-17T16:50:05.151Z,25.70
2018-10-17T16:52:33.563Z,25.20
2018-10-17T16:55:02.058Z,24.90
2018-10-17T16:57:30.423Z,24.50
2018-10-17T16:59:58.758Z,24.20
2018-10-17T17:02:27.240Z,23.90
2018-10-17T17:04:55.760Z,23.70
2018-10-17T17:07:24.271Z,23.50
2018-10-17T17:09:52.817Z,23.30
2018-10-17T17:12:21.409Z,23.20
2018-10-17T17:14:50.127Z,23.00
2018-10-17T17:17:18.693Z,22.90
2018-10-17T17:19:47.185Z,22.70
2018-10-17T17:22:15.875Z,22.60
2018-10-17T17:24:44.225Z,22.40
2018-10-17T17:27:12.620Z,22.30
2018-10-17T17:29:41.009Z,22.20
2018-10-17T17:32:09.426Z,22.00
2018-10-17T17:34:37.945Z,21.90
2018-10-17T17:37:06.534Z,21.90
2018-10-17T17:39:35.105Z,21.80
2018-10-17T17:42:03.695Z,21.80
2018-10-17T17:44:32.419Z,21.70
2018-10-17T17:47:00.810Z,21.60
2018-10-17T17:49:29.634Z,21.60
2018-10-17T17:51:58.079Z,21.50
2018-10-17T17:54:26.657Z,21.40
2018-10-17T17:56:55.160Z,21.30
2018-10-17T17:59:24.032Z,21.10
2018-10-17T18:01:52.458Z,21.10
2018-10-17T18:04:21.658Z,21.10
2018-10-17T18:06:50.585Z,21.00
2018-10-17T18:09:19.209Z,20.90
2018-10-17T18:11:47.840Z,20.90
2018-10-17T18:14:16.507Z,20.90
2018-10-17T18:16:44.934Z,20.70
2018-10-17T18:19:14.263Z,20.60
2018-10-17T18:21:42.677Z,20.50
2018-10-17T18:24:11.100Z,20.60
2018-10-17T18:26:39.640Z,20.50
2018-10-17T18:29:08.191Z,20.40
2018-10-17T18:31:37.198Z,20.40
2018-10-17T18:36:42.029Z,20.30
2018-10-17T18:39:10.319Z,20.30
2018-10-17T18:41:43.094Z,20.30
2018-10-17T18:44:11.461Z,20.20
2018-10-17T18:46:39.631Z,20.20
2018-10-17T18:49:07.930Z,20.10
2018-10-17T18:51:36.132Z,20.10
2018-10-17T18:54:04.754Z,20.10
2018-10-17T18:56:33.002Z,20.00
2018-10-17T18:59:01.319Z,20.00
2018-10-17T19:01:35.040Z,20.00
2018-10-17T19:04:03.293Z,19.90
2018-10-17T19:06:31.507Z,20.00
2018-10-17T19:08:59.735Z,19.90
2018-10-17T19:11:27.965Z,19.90
2018-10-17T19:13:56.235Z,19.90
2018-10-17T19:16:24.437Z,19.90
2018-10-17T19:18:52.632Z,19.90
2018-10-17T19:21:20.810Z,19.80
2018-10-17T19:23:49.084Z,19.80
2018-10-17T19:26:17.312Z,19.70
2018-10-17T19:28:45.473Z,19.70
2018-10-17T19:31:13.720Z,19.70
2018-10-17T19:33:41.988Z,19.70
2018-10-17T19:36:10.303Z,19.60
2018-10-17T19:38:38.469Z,19.50
2018-10-17T19:41:06.676Z,19.50
2018-10-17T19:43:34.978Z,19.50
2018-10-17T19:46:03.341Z,19.50
2018-10-17T19:48:31.563Z,19.50
2018-10-17T19:50:59.796Z,19.40
2018-10-17T19:53:28.018Z,19.30
2018-10-17T19:55:56.304Z,19.30
2018-10-17T19:58:24.512Z,19.30
2018-10-17T20:00:52.771Z,19.30
2018-10-17T20:03:21.088Z,19.20
2018-10-17T20:05:49.298Z,19.10
2018-10-17T20:08:17.528Z,19.00
2018-10-17T20:10:45.721Z,19.00
2018-10-17T20:13:13.912Z,19.00
2018-10-17T20:15:42.243Z,18.90
2018-10-17T20:18:10.429Z,18.90
2018-10-17T20:20:38.704Z,18.80
2018-10-17T20:23:06.891Z,18.90
2018-10-17T20:25:35.063Z,18.90
2018-10-17T20:28:03.304Z,18.80
2018-10-17T20:30:31.521Z,18.80
2018-10-17T20:32:59.725Z,18.80
2018-10-17T20:35:27.923Z,18.70
2018-10-17T20:37:56.099Z,18.70
2018-10-17T20:40:24.340Z,18.60
2018-10-17T20:42:52.592Z,18.50
2018-10-17T20:45:20.834Z,18.50
2018-10-17T20:47:49.033Z,18.50
2018-10-17T20:50:17.297Z,18.40
2018-10-17T20:52:45.470Z,18.50
2018-10-17T20:55:13.688Z,18.30
2018-10-17T20:57:41.896Z,18.20
2018-10-17T21:00:10.228Z,18.30
2018-10-17T21:02:38.475Z,18.20
2018-10-17T21:05:06.775Z,18.20
2018-10-17T21:07:35.049Z,18.20
2018-10-17T21:10:03.255Z,18.20
2018-10-17T21:12:31.466Z,18.20
2018-10-17T21:14:59.646Z,18.10
2018-10-17T21:17:27.884Z,17.90
2018-10-17T21:19:56.123Z,17.90
2018-10-17T21:22:24.367Z,17.80
2018-10-17T21:24:52.598Z,17.80
2018-10-17T21:27:20.764Z,17.70
2018-10-17T21:29:48.975Z,17.70
2018-10-17T21:32:17.266Z,17.60
2018-10-17T21:34:45.416Z,17.70
2018-10-17T21:37:13.625Z,17.60
2018-10-17T21:39:41.797Z,17.60
2018-10-17T21:42:10.001Z,17.50
2018-10-17T21:44:38.235Z,17.60
2018-10-17T21:47:06.619Z,17.60
2018-10-17T21:49:34.898Z,17.50
2018-10-17T21:52:03.175Z,17.40
2018-10-17T21:54:31.471Z,17.40
2018-10-17T21:56:59.718Z,17.40
2018-10-17T21:59:27.959Z,17.40
2018-10-17T22:01:56.218Z,17.40
2018-10-17T22:04:24.456Z,17.30
2018-10-17T22:06:52.695Z,17.30
2018-10-17T22:09:20.909Z,17.30
2018-10-17T22:11:49.106Z,17.30
2018-10-17T22:14:17.555Z,17.20
2018-10-17T22:16:51.015Z,17.20
2018-10-17T22:19:19.432Z,17.10
2018-10-17T22:21:47.463Z,17.10
2018-10-17T22:24:15.740Z,17.10
2018-10-17T22:26:44.027Z,17.00
2018-10-17T22:29:12.269Z,17.10
2018-10-17T22:31:40.470Z,17.00
2018-10-17T22:34:08.750Z,17.00
2018-10-17T22:36:37.051Z,16.90
2018-10-17T22:39:10.595Z,16.80
2018-10-17T22:41:46.105Z,16.80
2018-10-17T22:44:14.333Z,16.60
2018-10-17T22:46:42.557Z,16.60
2018-10-17T22:49:11.384Z,16.50
2018-10-17T22:51:40.171Z,16.50
2018-10-17T22:54:09.784Z,16.40
2018-10-17T22:56:39.095Z,16.40
2018-10-17T22:59:07.886Z,16.30
2018-10-17T23:01:36.799Z,16.40
2018-10-17T23:04:05.427Z,16.40
2018-10-17T23:06:33.659Z,16.40
2018-10-17T23:09:01.890Z,16.30
2018-10-17T23:11:30.126Z,16.30
2018-10-17T23:13:58.447Z,16.30
2018-10-17T23:16:26.714Z,16.30
2018-10-17T23:18:54.971Z,16.20
2018-10-17T23:21:23.159Z,16.20
2018-10-17T23:23:51.367Z,16.20
2018-10-17T23:26:19.577Z,16.10
2018-10-17T23:28:47.837Z,16.10
2018-10-17T23:31:16.046Z,16.10
2018-10-17T23:33:44.273Z,16.00
2018-10-17T23:36:12.579Z,16.00
2018-10-17T23:38:40.798Z,16.00
2018-10-17T23:41:09.108Z,16.00
2018-10-17T23:43:37.367Z,15.90
2018-10-17T23:46:05.680Z,15.90
2018-10-17T23:48:33.926Z,15.90
2018-10-17T23:51:02.191Z,15.90
2018-10-17T23:53:30.390Z,15.90
2018-10-17T23:55:58.596Z,15.90
2018-10-17T23:58:26.896Z,15.90
